ADDS METAR Data INFO
IDs: Format: Raw Decoded Include TAF

Data at: 1111 UTC 18 Oct 2017

KPVW 181055Z AUTO 23004KT 10SM CLR 07/04 A3006 RMK AO2 T00700038
KPVW 181035Z AUTO 26005KT 10SM CLR 07/04 A3007 RMK AO2 T00680037
KPVW 181015Z AUTO 27006KT 10SM CLR 08/04 A3006 RMK AO2 T00770039
KPVW 180955Z AUTO 31006KT 10SM CLR 07/04 A3007 RMK AO2 T00710035
KPVW 180935Z AUTO 23005KT 10SM CLR 09/04 A3006 RMK AO2 T00900037
KPVW 180915Z AUTO 22006KT 10SM CLR 09/04 A3007 RMK AO2 T00920037
KPVW 180855Z AUTO 22003KT 10SM CLR 10/04 A3008 RMK AO2 T00960035
KPVW 180835Z AUTO 22004KT 10SM CLR 10/04 A3008 RMK AO2 T00970036
KPVW 180815Z AUTO 22004KT 10SM CLR 10/04 A3008 RMK AO2 T01020037
KPVW 180755Z AUTO 22004KT 10SM CLR 10/04 A3009 RMK AO2 T01040037
KPVW 180735Z AUTO 22004KT 10SM CLR 11/04 A3009 RMK AO2 T01080037
KPVW 180715Z AUTO 24004KT 10SM CLR 11/04 A3010 RMK AO2 T01110038
KPVW 180655Z AUTO 23003KT 10SM CLR 11/04 A3010 RMK AO2 T01090039
KPVW 180635Z AUTO 23004KT 10SM CLR 12/04 A3010 RMK AO2 T01190040
KPVW 180615Z AUTO 23005KT 10SM CLR 13/04 A3010 RMK AO2 T01280040
KPVW 180555Z AUTO 21007KT 10SM CLR 13/04 A3011 RMK AO2 T01310041 10221 20110 402660025
KPVW 180535Z AUTO 22007KT 10SM CLR 12/04 A3011 RMK AO2 T01160040
KPVW 180515Z AUTO 22004KT 10SM CLR 11/04 A3012 RMK AO2 T01110038
KPVW 180455Z AUTO 20007KT 10SM CLR 12/04 A3012 RMK AO2 T01150040 TSNO
KPVW 180435Z AUTO 21005KT 10SM CLR 12/04 A3012 RMK AO2 T01200038
KPVW 180415Z AUTO 20008KT 10SM CLR 14/04 A3012 RMK AO2 T01350037
KPVW 180355Z AUTO 19009KT 10SM CLR 14/04 A3012 RMK AO2 T01410036
KPVW 180335Z AUTO 19009KT 10SM CLR 15/04 A3011 RMK AO2 T01450040
KPVW 180315Z AUTO 19009KT 10SM CLR 15/04 A3011 RMK AO2 T01490042
KPVW 180255Z AUTO 19009KT 10SM CLR 15/05 A3011 RMK AO2 T01520045
KPVW 180235Z AUTO 19009KT 10SM CLR 16/05 A3011 RMK AO2 T01560046
KPVW 180215Z AUTO 19010KT 10SM CLR 17/05 A3011 RMK AO2 T01660046
KPVW 180155Z AUTO 19011KT 10SM CLR 17/05 A3011 RMK AO2 T01730047
KPVW 180135Z AUTO 19010G15KT 10SM CLR 18/05 A3011 RMK AO2 T01800047
KPVW 180115Z AUTO 18009KT 10SM CLR 17/05 A3010 RMK AO2 T01720045
KPVW 180055Z AUTO 18008KT 10SM CLR 19/05 A3010 RMK AO2 T01850045
KPVW 180035Z AUTO 19008KT 10SM CLR 19/05 A3009 RMK AO2 T01930046
KPVW 180015Z AUTO 19008KT 10SM CLR 21/05 A3009 RMK AO2 T02060046
KPVW 172355Z AUTO 19008KT 10SM CLR 22/05 A3009 RMK AO2 T02220046 10266 20222
KPVW 172335Z AUTO 20008KT 10SM CLR 24/04 A3009 RMK AO2 T02360042
KPVW 172315Z AUTO 20009KT 10SM CLR 25/03 A3009 RMK AO2 T02510034
KPVW 172255Z AUTO 20011KT 10SM CLR 26/03 A3009 RMK AO2 T02590027
KPVW 172235Z AUTO 21011KT 10SM CLR 26/02 A3010 RMK AO2 T02610023
KPVW 172215Z AUTO 22012G15KT 10SM CLR 26/02 A3010 RMK AO2 T02630016
KPVW 172155Z AUTO 22009G16KT 10SM CLR 27/01 A3011 RMK AO2 T02650011
KPVW 172135Z AUTO 22013G16KT 180V240 10SM CLR 27/00 A3011 RMK AO2 T02650003
KPVW 172115Z AUTO 22012G17KT 10SM CLR 26/M01 A3011 RMK AO2 T02631006
KPVW 172055Z AUTO 24011KT 7SM CLR 26/00 A3012 RMK AO2 T02611004
KPVW 172035Z AUTO 22009G19KT 10SM CLR 26/00 A3012 RMK AO2 T02591003 TSNO
KPVW 172015Z AUTO 22012G17KT 10SM CLR 26/00 A3013 RMK AO2 T02600000 TSNO
KPVW 171955Z AUTO 21013G18KT 10SM CLR 26/01 A3014 RMK AO2 T02570012
KPVW 171935Z AUTO 20009G16KT 10SM CLR 25/02 A3015 RMK AO2 T02540016
KPVW 171915Z AUTO 22013KT 10SM CLR 25/02 A3016 RMK AO2 T02510017
KPVW 171855Z AUTO 21012G17KT 10SM CLR 25/03 A3017 RMK AO2 T02470026
KPVW 171835Z AUTO 20012G16KT 10SM CLR 25/04 A3018 RMK AO2 T02450036
KPVW 171815Z AUTO 21010G18KT 10SM CLR 24/04 A3020 RMK AO2 T02360035 TSNO
KPVW 171755Z AUTO 20010G15KT 10SM CLR 23/04 A3021 RMK AO2 T02320037 10232 20031 TSNO
KPVW 171735Z AUTO 21012KT 10SM CLR 22/04 A3021 RMK AO2 T02210037
KPVW 171715Z AUTO 23011G14KT 10SM CLR 22/04 A3022 RMK AO2 T02160039
KPVW 171655Z AUTO 22011KT 10SM CLR 21/03 A3022 RMK AO2 T02050034
KPVW 171635Z AUTO 24011G16KT 10SM CLR 20/03 A3023 RMK AO2 T01960031
KPVW 171615Z AUTO 24013G17KT 10SM CLR 19/03 A3023 RMK AO2 T01870027
KPVW 171555Z AUTO 23012G17KT 10SM CLR 18/02 A3024 RMK AO2 T01760024
KPVW 171535Z AUTO 24014KT 10SM CLR 17/02 A3024 RMK AO2 T01670024
KPVW 171515Z AUTO 23014G19KT 10SM CLR 16/02 A3024 RMK AO2 T01560019
KPVW 171455Z AUTO 24012G16KT 10SM CLR 15/03 A3024 RMK AO2 T01460029
KPVW 171435Z AUTO 24012KT 10SM CLR 13/03 A3024 RMK AO2 T01300030
KPVW 171415Z AUTO 24007KT 10SM CLR 11/03 A3024 RMK AO2 T01060029
KPVW 171355Z AUTO 00000KT 10SM CLR 08/03 A3024 RMK AO2 T00830028
KPVW 171335Z AUTO 22003KT 10SM CLR 07/02 A3023 RMK AO2 T00700021
KPVW 171315Z AUTO 20007KT 10SM CLR 06/02 A3023 RMK AO2 T00610020
KPVW 171255Z AUTO 22006KT 10SM CLR 05/02 A3023 RMK AO2 T00490017
KPVW 171235Z AUTO 22005KT 10SM CLR 05/02 A3023 RMK AO2 T00450017
KPVW 171215Z AUTO 24005KT 10SM CLR 04/01 A3022 RMK AO2 T00360012
KPVW 171155Z AUTO 25005KT 10SM CLR 04/01 A3023 RMK AO2 T00360012 10067 20025
KPVW 171135Z AUTO 24007KT 10SM CLR 03/01 A3023 RMK AO2 T00320009
KPVW 171115Z AUTO 25004KT 10SM CLR 03/00 A3024 RMK AO2 T00300003
KPVW 171055Z AUTO 25004KT 10SM CLR 03/00 A3024 RMK AO2 T00260003
KPVW 171035Z AUTO 25003KT 10SM CLR 03/01 A3024 RMK AO2 T00340005
KPVW 171015Z AUTO 22004KT 10SM CLR 03/01 A3023 RMK AO2 T00300005
KPVW 170955Z AUTO 24005KT 10SM CLR 03/01 A3023 RMK AO2 T00330009
KPVW 170935Z AUTO 24005KT 10SM CLR 04/01 A3023 RMK AO2 T00350008
KPVW 170915Z AUTO 24006KT 10SM CLR 04/01 A3024 RMK AO2 T00420010
KPVW 170855Z AUTO 24006KT 10SM CLR 05/01 A3025 RMK AO2 T00450010
KPVW 170835Z AUTO 24006KT 10SM CLR 05/01 A3026 RMK AO2 T00450010
KPVW 170815Z AUTO 24005KT 10SM CLR 05/01 A3026 RMK AO2 T00460007
KPVW 170755Z AUTO 23006KT 10SM CLR 07/01 A3026 RMK AO2 T00650010
KPVW 170735Z AUTO 23005KT 10SM CLR 07/01 A3026 RMK AO2 T00650007
KPVW 170715Z AUTO 23007KT 10SM CLR 07/01 A3026 RMK AO2 T00650007
KPVW 170655Z AUTO 23006KT 10SM CLR 07/01 A3027 RMK AO2 T00650007
KPVW 170635Z AUTO 22006KT 10SM CLR 06/01 A3027 RMK AO2 T00570006
KPVW 170615Z AUTO 23006KT 10SM CLR 06/01 A3027 RMK AO2 T00630006
KPVW 170555Z AUTO 23005KT 10SM CLR 06/01 A3028 RMK AO2 T00600007 10169 20057 402050003
KPVW 170535Z AUTO 23003KT 10SM CLR 06/01 A3028 RMK AO2 T00610006
KPVW 170515Z AUTO 22005KT 10SM CLR 06/01 A3028 RMK AO2 T00640005
KPVW 170455Z AUTO 21005KT 10SM CLR 08/01 A3028 RMK AO2 T00760005
KPVW 170435Z AUTO 20007KT 10SM CLR 09/00 A3029 RMK AO2 T00860002
KPVW 170415Z AUTO 20007KT 10SM CLR 09/00 A3029 RMK AO2 T00900000
KPVW 170355Z AUTO 20006KT 10SM CLR 09/00 A3028 RMK AO2 T00920001
KPVW 170335Z AUTO 20008KT 10SM CLR 10/00 A3028 RMK AO2 T00950001
KPVW 170315Z AUTO 20008KT 10SM CLR 10/00 A3028 RMK AO2 T01010000
KPVW 170255Z AUTO 20008KT 10SM CLR 11/00 A3029 RMK AO2 T01081003
KPVW 170235Z AUTO 19008KT 10SM CLR 11/00 A3029 RMK AO2 T01091003
KPVW 170215Z AUTO 19007KT 10SM CLR 11/00 A3029 RMK AO2 T01071001
KPVW 170155Z AUTO 18007KT 10SM CLR 10/00 A3029 RMK AO2 T01000000
KPVW 170135Z AUTO 18006KT 10SM CLR 11/00 A3028 RMK AO2 T01100000
KPVW 170115Z AUTO 18006KT 10SM CLR 12/00 A3028 RMK AO2 T01191001
KPVW 170055Z AUTO 18006KT 10SM CLR 13/00 A3028 RMK AO2 T01281001
KPVW 170035Z AUTO 18006KT 10SM CLR 13/00 A3028 RMK AO2 T01330000
KPVW 170015Z AUTO 18006KT 10SM CLR 15/00 A3028 RMK AO2 T01541003
KPVW 162355Z AUTO 19005KT 10SM CLR 17/M01 A3028 RMK AO2 T01711006 10205 20171
KPVW 162335Z AUTO 20006KT 10SM CLR 19/M01 A3028 RMK AO2 T01861014
KPVW 162315Z AUTO 20007KT 10SM CLR 19/M02 A3028 RMK AO2 T01921016